sensor_id;sensor_type;location;lat;lon;timestamp;pressure;altitude;pressure_sealevel;temperature;humidity
36380;BME280;22411;53.016;18.632;2023-02-04T00:00:12;100477.03;;;-1.24;100.00
36380;BME280;22411;53.016;18.632;2023-02-04T00:02:58;100506.72;;;-1.24;100.00
36380;BME280;22411;53.016;18.632;2023-02-04T00:05:24;100520.38;;;-1.30;100.00
36380;BME280;22411;53.016;18.632;2023-02-04T00:07:50;100527.09;;;-1.27;100.00
36380;BME280;22411;53.016;18.632;2023-02-04T00:10:16;100529.59;;;-1.24;100.00
36380;BME280;22411;53.016;18.632;2023-02-04T00:12:43;100552.53;;;-1.26;100.00
36380;BME280;22411;53.016;18.632;2023-02-04T00:15:09;100555.91;;;-1.27;100.00
36380;BME280;22411;53.016;18.632;2023-02-04T00:17:35;100568.53;;;-1.22;100.00
36380;BME280;22411;53.016;18.632;2023-02-04T00:20:02;100590.53;;;-1.18;100.00
36380;BME280;22411;53.016;18.632;2023-02-04T00:22:28;100603.19;;;-1.17;100.00
36380;BME280;22411;53.016;18.632;2023-02-04T00:24:54;100612.41;;;-1.11;100.00
36380;BME280;22411;53.016;18.632;2023-02-04T00:27:21;100628.44;;;-1.06;100.00
36380;BME280;22411;53.016;18.632;2023-02-04T00:29:47;100630.13;;;-1.05;100.00
36380;BME280;22411;53.016;18.632;2023-02-04T00:32:13;100642.88;;;-1.07;100.00
36380;BME280;22411;53.016;18.632;2023-02-04T00:34:39;100649.66;;;-1.07;100.00
36380;BME280;22411;53.016;18.632;2023-02-04T00:37:06;100653.13;;;-1.11;100.00
36380;BME280;22411;53.016;18.632;2023-02-04T00:39:32;100665.84;;;-1.11;100.00
36380;BME280;22411;53.016;18.632;2023-02-04T00:41:58;100676.84;;;-1.09;100.00
36380;BME280;22411;53.016;18.632;2023-02-04T00:44:23;100692.97;;;-1.10;100.00
36380;BME280;22411;53.016;18.632;2023-02-04T00:46:50;100706.63;;;-1.14;100.00
36380;BME280;22411;53.016;18.632;2023-02-04T00:49:15;100715.00;;;-1.09;100.00
36380;BME280;22411;53.016;18.632;2023-02-04T00:51:41;100718.50;;;-1.16;100.00
36380;BME280;22411;53.016;18.632;2023-02-04T00:54:11;100727.00;;;-1.16;100.00
36380;BME280;22411;53.016;18.632;2023-02-04T00:56:37;100738.00;;;-1.17;100.00
36380;BME280;22411;53.016;18.632;2023-02-04T00:59:03;100741.50;;;-1.21;100.00
36380;BME280;22411;53.016;18.632;2023-02-04T01:01:29;100758.44;;;-1.20;100.00
36380;BME280;22411;53.016;18.632;2023-02-04T01:03:55;100769.38;;;-1.16;100.00
36380;BME280;22411;53.016;18.632;2023-02-04T01:06:21;100777.94;;;-1.22;100.00
36380;BME280;22411;53.016;18.632;2023-02-04T01:08:47;100776.25;;;-1.20;100.00
36380;BME280;22411;53.016;18.632;2023-02-04T01:11:13;100782.19;;;-1.21;100.00
36380;BME280;22411;53.016;18.632;2023-02-04T01:13:39;100788.97;;;-1.20;100.00
36380;BME280;22411;53.016;18.632;2023-02-04T01:16:05;100800.03;;;-1.24;100.00
36380;BME280;22411;53.016;18.632;2023-02-04T01:18:31;100813.69;;;-1.29;100.00
36380;BME280;22411;53.016;18.632;2023-02-04T01:20:57;100828.97;;;-1.31;100.00
36380;BME280;22411;53.016;18.632;2023-02-04T01:23:22;100841.81;;;-1.40;100.00
36380;BME280;22411;53.016;18.632;2023-02-04T01:25:51;100853.72;;;-1.42;100.00
36380;BME280;22411;53.016;18.632;2023-02-04T01:28:17;100847.00;;;-1.48;100.00
36380;BME280;22411;53.016;18.632;2023-02-04T01:30:43;100853.00;;;-1.52;100.00
36380;BME280;22411;53.016;18.632;2023-02-04T01:33:09;100853.97;;;-1.62;100.00
36380;BME280;22411;53.016;18.632;2023-02-04T01:35:35;100875.13;;;-1.60;100.00
36380;BME280;22411;53.016;18.632;2023-02-04T01:38:01;100889.56;;;-1.64;100.00
36380;BME280;22411;53.016;18.632;2023-02-04T01:40:27;100889.50;;;-1.58;100.00
36380;BME280;22411;53.016;18.632;2023-02-04T01:42:53;100900.59;;;-1.63;100.00
36380;BME280;22411;53.016;18.632;2023-02-04T01:45:19;100909.94;;;-1.67;100.00
36380;BME280;22411;53.016;18.632;2023-02-04T01:47:45;100920.97;;;-1.69;100.00
36380;BME280;22411;53.016;18.632;2023-02-04T01:50:15;100942.19;;;-1.72;100.00
36380;BME280;22411;53.016;18.632;2023-02-04T01:52:42;100949.84;;;-1.73;100.00
36380;BME280;22411;53.016;18.632;2023-02-04T01:55:13;100954.03;;;-1.69;100.00
36380;BME280;22411;53.016;18.632;2023-02-04T01:57:40;100960.03;;;-1.73;100.00
36380;BME280;22411;53.016;18.632;2023-02-04T02:00:28;100970.16;;;-1.72;100.00
36380;BME280;22411;53.016;18.632;2023-02-04T02:02:55;100987.13;;;-1.72;100.00
36380;BME280;22411;53.016;18.632;2023-02-04T02:05:28;101001.47;;;-1.70;100.00
36380;BME280;22411;53.016;18.632;2023-02-04T02:07:57;101007.41;;;-1.69;100.00
36380;BME280;22411;53.016;18.632;2023-02-04T02:10:25;101013.44;;;-1.81;100.00
36380;BME280;22411;53.016;18.632;2023-02-04T02:12:52;101024.53;;;-1.88;100.00
36380;BME280;22411;53.016;18.632;2023-02-04T02:15:19;101023.69;;;-1.90;100.00
36380;BME280;22411;53.016;18.632;2023-02-04T02:17:46;101033.88;;;-1.92;100.00
36380;BME280;22411;53.016;18.632;2023-02-04T02:20:15;101044.09;;;-2.01;100.00
36380;BME280;22411;53.016;18.632;2023-02-04T02:25:13;101062.81;;;-2.11;100.00
36380;BME280;22411;53.016;18.632;2023-02-04T02:27:40;101075.59;;;-2.19;100.00
36380;BME280;22411;53.016;18.632;2023-02-04T02:30:07;101084.88;;;-2.18;100.00
36380;BME280;22411;53.016;18.632;2023-02-04T02:32:35;101097.66;;;-2.25;100.00
36380;BME280;22411;53.016;18.632;2023-02-04T02:35:02;101103.59;;;-2.26;100.00
36380;BME280;22411;53.016;18.632;2023-02-04T02:37:29;101113.75;;;-2.29;100.00
36380;BME280;22411;53.016;18.632;2023-02-04T02:39:55;101129.88;;;-2.32;100.00
36380;BME280;22411;53.016;18.632;2023-02-04T02:42:21;101137.47;;;-2.33;100.00
36380;BME280;22411;53.016;18.632;2023-02-04T02:44:49;101155.25;;;-2.33;100.00
36380;BME280;22411;53.016;18.632;2023-02-04T02:47:19;101155.25;;;-2.33;100.00
36380;BME280;22411;53.016;18.632;2023-02-04T02:49:50;101173.88;;;-2.34;100.00
36380;BME280;22411;53.016;18.632;2023-02-04T02:52:18;101184.06;;;-2.41;100.00
36380;BME280;22411;53.016;18.632;2023-02-04T02:54:45;101181.53;;;-2.41;100.00
36380;BME280;22411;53.016;18.632;2023-02-04T02:57:13;101195.06;;;-2.42;100.00
36380;BME280;22411;53.016;18.632;2023-02-04T02:59:40;101197.63;;;-2.45;100.00
36380;BME280;22411;53.016;18.632;2023-02-04T03:02:08;101214.50;;;-2.39;100.00
36380;BME280;22411;53.016;18.632;2023-02-04T03:04:44;101222.97;;;-2.39;100.00
36380;BME280;22411;53.016;18.632;2023-02-04T03:07:13;101244.97;;;-2.38;100.00
36380;BME280;22411;53.016;18.632;2023-02-04T03:09:40;101245.84;;;-2.37;100.00
36380;BME280;22411;53.016;18.632;2023-02-04T03:12:06;101250.91;;;-2.35;100.00
36380;BME280;22411;53.016;18.632;2023-02-04T03:14:32;101255.13;;;-2.39;100.00
36380;BME280;22411;53.016;18.632;2023-02-04T03:17:00;101261.91;;;-2.37;100.00
36380;BME280;22411;53.016;18.632;2023-02-04T03:19:27;101267.84;;;-2.41;100.00
36380;BME280;22411;53.016;18.632;2023-02-04T03:21:55;101272.94;;;-2.41;100.00
36380;BME280;22411;53.016;18.632;2023-02-04T03:24:22;101279.72;;;-2.46;100.00
36380;BME280;22411;53.016;18.632;2023-02-04T03:26:48;101282.25;;;-2.44;100.00
36380;BME280;22411;53.016;18.632;2023-02-04T03:29:14;101298.31;;;-2.48;100.00
36380;BME280;22411;53.016;18.632;2023-02-04T03:31:40;101300.88;;;-2.45;100.00
36380;BME280;22411;53.016;18.632;2023-02-04T03:34:06;101312.72;;;-2.46;100.00
36380;BME280;22411;53.016;18.632;2023-02-04T03:36:33;101312.72;;;-2.47;100.00
36380;BME280;22411;53.016;18.632;2023-02-04T03:38:59;101327.97;;;-2.47;100.00
36380;BME280;22411;53.016;18.632;2023-02-04T03:41:25;101336.44;;;-2.51;100.00
36380;BME280;22411;53.016;18.632;2023-02-04T03:43:51;101345.72;;;-2.55;100.00
36380;BME280;22411;53.016;18.632;2023-02-04T03:46:17;101353.34;;;-2.55;100.00
36380;BME280;22411;53.016;18.632;2023-02-04T03:48:43;101360.94;;;-2.49;100.00
36380;BME280;22411;53.016;18.632;2023-02-04T03:51:08;101371.09;;;-2.53;100.00
36380;BME280;22411;53.016;18.632;2023-02-04T03:53:34;101391.41;;;-2.50;100.00
36380;BME280;22411;53.016;18.632;2023-02-04T03:56:00;101393.94;;;-2.49;100.00
36380;BME280;22411;53.016;18.632;2023-02-04T03:58:27;101407.50;;;-2.51;100.00
36380;BME280;22411;53.016;18.632;2023-02-04T04:00:52;101406.63;;;-2.53;100.00
36380;BME280;22411;53.016;18.632;2023-02-04T04:03:19;101421.03;;;-2.54;100.00
36380;BME280;22411;53.016;18.632;2023-02-04T04:05:44;101426.09;;;-2.58;100.00
36380;BME280;22411;53.016;18.632;2023-02-04T04:08:11;101432.03;;;-2.61;100.00
36380;BME280;22411;53.016;18.632;2023-02-04T04:10:36;101443.03;;;-2.62;100.00
36380;BME280;22411;53.016;18.632;2023-02-04T04:13:02;101448.13;;;-2.64;100.00
36380;BME280;22411;53.016;18.632;2023-02-04T04:15:29;101453.19;;;-2.64;100.00
36380;BME280;22411;53.016;18.632;2023-02-04T04:17:55;101463.34;;;-2.65;100.00
36380;BME280;22411;53.016;18.632;2023-02-04T04:20:21;101470.97;;;-2.68;100.00
36380;BME280;22411;53.016;18.632;2023-02-04T04:22:51;101480.25;;;-2.67;100.00
36380;BME280;22411;53.016;18.632;2023-02-04T04:25:17;101487.88;;;-2.73;100.00
36380;BME280;22411;53.016;18.632;2023-02-04T04:27:43;101494.63;;;-2.77;100.00
36380;BME280;22411;53.016;18.632;2023-02-04T04:30:10;101497.16;;;-2.78;100.00
36380;BME280;22411;53.016;18.632;2023-02-04T04:32:36;101498.84;;;-2.82;100.00
36380;BME280;22411;53.016;18.632;2023-02-04T04:35:02;101500.53;;;-2.82;100.00
36380;BME280;22411;53.016;18.632;2023-02-04T04:37:29;101511.53;;;-2.82;100.00
36380;BME280;22411;53.016;18.632;2023-02-04T04:39:54;101516.59;;;-2.88;100.00
36380;BME280;22411;53.016;18.632;2023-02-04T04:42:20;101534.34;;;-2.90;100.00
36380;BME280;22411;53.016;18.632;2023-02-04T04:44:46;101536.03;;;-2.88;100.00
36380;BME280;22411;53.016;18.632;2023-02-04T04:47:12;101547.88;;;-2.92;100.00
36380;BME280;22411;53.016;18.632;2023-02-04T04:49:38;101556.31;;;-2.93;100.00
36380;BME280;22411;53.016;18.632;2023-02-04T04:52:04;101550.38;;;-2.98;100.00
36380;BME280;22411;53.016;18.632;2023-02-04T04:54:33;101545.31;;;-3.00;100.00
36380;BME280;22411;53.016;18.632;2023-02-04T04:56:59;101553.75;;;-3.04;100.00
36380;BME280;22411;53.016;18.632;2023-02-04T04:59:25;101563.91;;;-2.98;100.00
36380;BME280;22411;53.016;18.632;2023-02-04T05:01:51;101564.78;;;-2.93;100.00
36380;BME280;22411;53.016;18.632;2023-02-04T05:04:16;101561.41;;;-2.88;100.00
36380;BME280;22411;53.016;18.632;2023-02-04T05:06:43;101557.22;;;-2.83;100.00
36380;BME280;22411;53.016;18.632;2023-02-04T05:09:09;101568.19;;;-2.81;100.00
36380;BME280;22411;53.016;18.632;2023-02-04T05:11:35;101585.97;;;-2.77;100.00
36380;BME280;22411;53.016;18.632;2023-02-04T05:14:01;101606.28;;;-2.75;100.00
36380;BME280;22411;53.016;18.632;2023-02-04T05:16:27;101619.00;;;-2.69;100.00
36380;BME280;22411;53.016;18.632;2023-02-04T05:18:53;101632.53;;;-2.64;100.00
36380;BME280;22411;53.016;18.632;2023-02-04T05:21:19;101649.47;;;-2.66;100.00
36380;BME280;22411;53.016;18.632;2023-02-04T05:23:45;101657.94;;;-2.64;100.00
36380;BME280;22411;53.016;18.632;2023-02-04T05:26:11;101671.47;;;-2.68;100.00
36380;BME280;22411;53.016;18.632;2023-02-04T05:28:37;101685.88;;;-2.63;100.00
36380;BME280;22411;53.016;18.632;2023-02-04T05:31:03;101696.03;;;-2.63;100.00
36380;BME280;22411;53.016;18.632;2023-02-04T05:33:29;101690.09;;;-2.58;100.00
36380;BME280;22411;53.016;18.632;2023-02-04T05:35:55;101692.66;;;-2.58;100.00
36380;BME280;22411;53.016;18.632;2023-02-04T05:38:21;101699.44;;;-2.56;100.00
36380;BME280;22411;53.016;18.632;2023-02-04T05:40:47;101700.28;;;-2.54;100.00
36380;BME280;22411;53.016;18.632;2023-02-04T05:43:13;101705.38;;;-2.51;100.00
36380;BME280;22411;53.016;18.632;2023-02-04T05:45:39;101707.94;;;-2.49;100.00
36380;BME280;22411;53.016;18.632;2023-02-04T05:48:04;101708.78;;;-2.49;100.00
36380;BME280;22411;53.016;18.632;2023-02-04T05:50:33;101717.22;;;-2.48;100.00
36380;BME280;22411;53.016;18.632;2023-02-04T05:52:59;101726.56;;;-2.44;100.00
36380;BME280;22411;53.016;18.632;2023-02-04T05:55:25;101727.44;;;-2.42;100.00
36380;BME280;22411;53.016;18.632;2023-02-04T05:57:51;101744.41;;;-2.37;100.00
36380;BME280;22411;53.016;18.632;2023-02-04T06:00:17;101746.09;;;-2.35;100.00
36380;BME280;22411;53.016;18.632;2023-02-04T06:02:43;101743.56;;;-2.29;100.00
36380;BME280;22411;53.016;18.632;2023-02-04T06:05:09;101745.25;;;-2.30;100.00
36380;BME280;22411;53.016;18.632;2023-02-04T06:07:35;101751.19;;;-2.28;100.00
36380;BME280;22411;53.016;18.632;2023-02-04T06:10:01;101752.03;;;-2.29;100.00
36380;BME280;22411;53.016;18.632;2023-02-04T06:12:27;101756.31;;;-2.20;100.00
36380;BME280;22411;53.016;18.632;2023-02-04T06:14:53;101748.66;;;-2.22;100.00
36380;BME280;22411;53.016;18.632;2023-02-04T06:17:19;101758.00;;;-2.21;100.00
36380;BME280;22411;53.016;18.632;2023-02-04T06:19:45;101756.31;;;-2.17;100.00
36380;BME280;22411;53.016;18.632;2023-02-04T06:22:11;101756.28;;;-2.22;100.00
36380;BME280;22411;53.016;18.632;2023-02-04T06:24:37;101768.16;;;-2.22;100.00
36380;BME280;22411;53.016;18.632;2023-02-04T06:27:03;101769.00;;;-2.25;100.00
36380;BME280;22411;53.016;18.632;2023-02-04T06:29:29;101769.00;;;-2.26;100.00
36380;BME280;22411;53.016;18.632;2023-02-04T06:31:55;101765.59;;;-2.24;100.00
36380;BME280;22411;53.016;18.632;2023-02-04T06:34:21;101774.09;;;-2.20;100.00
36380;BME280;22411;53.016;18.632;2023-02-04T06:36:47;101770.72;;;-2.21;100.00
36380;BME280;22411;53.016;18.632;2023-02-04T06:39:13;101784.22;;;-2.22;100.00
36380;BME280;22411;53.016;18.632;2023-02-04T06:41:39;101781.69;;;-2.22;100.00
36380;BME280;22411;53.016;18.632;2023-02-04T06:44:05;101779.19;;;-2.19;100.00
36380;BME280;22411;53.016;18.632;2023-02-04T06:46:31;101790.19;;;-2.17;100.00
36380;BME280;22411;53.016;18.632;2023-02-04T06:48:58;101798.66;;;-2.12;100.00
36380;BME280;22411;53.016;18.632;2023-02-04T06:51:24;101809.69;;;-2.11;100.00
36380;BME280;22411;53.016;18.632;2023-02-04T06:53:51;101809.72;;;-2.06;100.00
36380;BME280;22411;53.016;18.632;2023-02-04T06:56:17;101813.13;;;-2.04;100.00
36380;BME280;22411;53.016;18.632;2023-02-04T06:58:43;101819.91;;;-2.00;100.00
36380;BME280;22411;53.016;18.632;2023-02-04T07:01:09;101831.75;;;-2.04;100.00
36380;BME280;22411;53.016;18.632;2023-02-04T07:03:35;101843.59;;;-2.07;100.00
36380;BME280;22411;53.016;18.632;2023-02-04T07:06:01;101850.38;;;-2.09;100.00
36380;BME280;22411;53.016;18.632;2023-02-04T07:08:27;101856.25;;;-2.14;100.00
36380;BME280;22411;53.016;18.632;2023-02-04T07:10:53;101868.06;;;-2.22;100.00
36380;BME280;22411;53.016;18.632;2023-02-04T07:13:19;101870.59;;;-2.22;100.00
36380;BME280;22411;53.016;18.632;2023-02-04T07:15:45;101873.09;;;-2.29;100.00
36380;BME280;22411;53.016;18.632;2023-02-04T07:18:11;101864.66;;;-2.25;100.00
36380;BME280;22411;53.016;18.632;2023-02-04T07:20:37;101863.78;;;-2.29;100.00
36380;BME280;22411;53.016;18.632;2023-02-04T07:23:03;101867.19;;;-2.28;100.00
36380;BME280;22411;53.016;18.632;2023-02-04T07:25:29;101879.88;;;-2.27;100.00
36380;BME280;22411;53.016;18.632;2023-02-04T07:27:55;101890.91;;;-2.22;100.00
36380;BME280;22411;53.016;18.632;2023-02-04T07:30:23;101890.09;;;-2.18;100.00
36380;BME280;22411;53.016;18.632;2023-02-04T07:32:49;101890.09;;;-2.19;100.00
36380;BME280;22411;53.016;18.632;2023-02-04T07:35:15;101903.66;;;-2.20;100.00
36380;BME280;22411;53.016;18.632;2023-02-04T07:37:42;101890.13;;;-2.12;100.00
36380;BME280;22411;53.016;18.632;2023-02-04T07:40:10;101895.25;;;-2.07;100.00
36380;BME280;22411;53.016;18.632;2023-02-04T07:42:36;101900.34;;;-2.05;100.00
36380;BME280;22411;53.016;18.632;2023-02-04T07:45:02;101902.06;;;-1.95;100.00
36380;BME280;22411;53.016;18.632;2023-02-04T07:47:31;101913.97;;;-1.94;100.00
36380;BME280;22411;53.016;18.632;2023-02-04T07:49:57;101919.09;;;-1.90;100.00
36380;BME280;22411;53.016;18.632;2023-02-04T07:52:24;101925.88;;;-1.81;100.00
36380;BME280;22411;53.016;18.632;2023-02-04T07:54:50;101927.63;;;-1.78;100.00
36380;BME280;22411;53.016;18.632;2023-02-04T07:57:18;101932.69;;;-1.77;100.00
36380;BME280;22411;53.016;18.632;2023-02-04T07:59:44;101941.19;;;-1.69;100.00
36380;BME280;22411;53.016;18.632;2023-02-04T08:02:10;101943.72;;;-1.69;100.00
36380;BME280;22411;53.016;18.632;2023-02-04T08:04:36;101947.16;;;-1.68;100.00
36380;BME280;22411;53.016;18.632;2023-02-04T08:07:05;101948.00;;;-1.66;100.00
36380;BME280;22411;53.016;18.632;2023-02-04T08:09:31;101951.41;;;-1.60;100.00
36380;BME280;22411;53.016;18.632;2023-02-04T08:11:57;101962.44;;;-1.59;100.00
36380;BME280;22411;53.016;18.632;2023-02-04T08:14:24;101965.81;;;-1.62;100.00
36380;BME280;22411;53.016;18.632;2023-02-04T08:16:51;101971.78;;;-1.55;100.00
36380;BME280;22411;53.016;18.632;2023-02-04T08:19:16;101976.00;;;-1.60;100.00
36380;BME280;22411;53.016;18.632;2023-02-04T08:21:46;101977.69;;;-1.62;100.00
36380;BME280;22411;53.016;18.632;2023-02-04T08:24:13;101985.31;;;-1.59;100.00
36380;BME280;22411;53.016;18.632;2023-02-04T08:26:40;101988.75;;;-1.54;100.00
36380;BME280;22411;53.016;18.632;2023-02-04T08:29:07;101989.63;;;-1.43;100.00
36380;BME280;22411;53.016;18.632;2023-02-04T08:31:33;101996.50;;;-1.28;100.00
36380;BME280;22411;53.016;18.632;2023-02-04T08:33:59;101985.50;;;-1.25;100.00
36380;BME280;22411;53.016;18.632;2023-02-04T08:36:25;101983.78;;;-1.23;100.00
36380;BME280;22411;53.016;18.632;2023-02-04T08:38:51;101979.53;;;-1.21;100.00
36380;BME280;22411;53.016;18.632;2023-02-04T08:41:17;101986.31;;;-1.22;100.00
36380;BME280;22411;53.016;18.632;2023-02-04T08:43:43;101995.66;;;-1.24;100.00
36380;BME280;22411;53.016;18.632;2023-02-04T08:46:11;101994.81;;;-1.23;100.00
36380;BME280;22411;53.016;18.632;2023-02-04T08:48:36;101989.75;;;-1.12;100.00
36380;BME280;22411;53.016;18.632;2023-02-04T08:51:03;101988.06;;;-1.12;100.00
36380;BME280;22411;53.016;18.632;2023-02-04T08:53:29;101990.66;;;-0.99;100.00
36380;BME280;22411;53.016;18.632;2023-02-04T08:55:55;101993.25;;;-0.87;100.00
36380;BME280;22411;53.016;18.632;2023-02-04T08:58:21;102007.66;;;-0.89;100.00
36380;BME280;22411;53.016;18.632;2023-02-04T09:00:47;102003.41;;;-0.86;100.00
36380;BME280;22411;53.016;18.632;2023-02-04T09:03:13;102011.91;;;-0.82;100.00
36380;BME280;22411;53.016;18.632;2023-02-04T09:05:39;102019.56;;;-0.77;100.00
36380;BME280;22411;53.016;18.632;2023-02-04T09:08:05;102023.84;;;-0.73;100.00
36380;BME280;22411;53.016;18.632;2023-02-04T09:10:31;102027.22;;;-0.65;100.00
36380;BME280;22411;53.016;18.632;2023-02-04T09:12:57;102037.44;;;-0.62;100.00
36380;BME280;22411;53.016;18.632;2023-02-04T09:15:25;102040.88;;;-0.33;100.00
36380;BME280;22411;53.016;18.632;2023-02-04T09:17:51;102052.78;;;-0.25;100.00
36380;BME280;22411;53.016;18.632;2023-02-04T09:20:29;102057.00;;;0.29;100.00
36380;BME280;22411;53.016;18.632;2023-02-04T09:22:55;102067.75;;;1.32;100.00
36380;BME280;22411;53.016;18.632;2023-02-04T09:25:21;102062.03;;;2.15;100.00
36380;BME280;22411;53.016;18.632;2023-02-04T09:27:47;102072.06;;;2.38;100.00
36380;BME280;22411;53.016;18.632;2023-02-04T09:30:14;102065.53;;;2.89;100.00
36380;BME280;22411;53.016;18.632;2023-02-04T09:32:39;102077.00;;;3.88;100.00
36380;BME280;22411;53.016;18.632;2023-02-04T09:35:06;102085.28;;;4.55;100.00
36380;BME280;22411;53.016;18.632;2023-02-04T09:37:32;102088.31;;;3.74;100.00
36380;BME280;22411;53.016;18.632;2023-02-04T09:39:58;102088.38;;;3.07;100.00
36380;BME280;22411;53.016;18.632;2023-02-04T09:42:25;102087.72;;;2.02;100.00
36380;BME280;22411;53.016;18.632;2023-02-04T09:44:51;102087.50;;;2.28;100.00
36380;BME280;22411;53.016;18.632;2023-02-04T09:47:22;102091.88;;;3.00;100.00
36380;BME280;22411;53.016;18.632;2023-02-04T09:49:50;102098.63;;;3.72;100.00
36380;BME280;22411;53.016;18.632;2023-02-04T09:52:17;102098.59;;;4.26;100.00
36380;BME280;22411;53.016;18.632;2023-02-04T09:54:44;102103.44;;;4.89;100.00
36380;BME280;22411;53.016;18.632;2023-02-04T09:57:16;102099.56;;;5.91;100.00
36380;BME280;22411;53.016;18.632;2023-02-04T09:59:43;102106.19;;;6.69;100.00
36380;BME280;22411;53.016;18.632;2023-02-04T10:02:24;102103.19;;;7.45;100.00
36380;BME280;22411;53.016;18.632;2023-02-04T10:04:53;102109.81;;;7.24;100.00
36380;BME280;22411;53.016;18.632;2023-02-04T10:07:22;102121.19;;;7.75;100.00
36380;BME280;22411;53.016;18.632;2023-02-04T10:09:52;102117.16;;;8.96;100.00
36380;BME280;22411;53.016;18.632;2023-02-04T10:12:19;102113.56;;;7.42;100.00
36380;BME280;22411;53.016;18.632;2023-02-04T10:14:48;102118.47;;;6.92;100.00
36380;BME280;22411;53.016;18.632;2023-02-04T10:17:19;102122.56;;;7.86;100.00
36380;BME280;22411;53.016;18.632;2023-02-04T10:19:46;102124.81;;;8.99;100.00
36380;BME280;22411;53.016;18.632;2023-02-04T10:22:20;102123.81;;;6.52;100.00
36380;BME280;22411;53.016;18.632;2023-02-04T10:24:47;102124.53;;;4.62;100.00
36380;BME280;22411;53.016;18.632;2023-02-04T10:27:13;102132.56;;;6.11;100.00
36380;BME280;22411;53.016;18.632;2023-02-04T10:29:54;102132.84;;;6.68;100.00
36380;BME280;22411;53.016;18.632;2023-02-04T10:32:29;102128.91;;;6.88;100.00
36380;BME280;22411;53.016;18.632;2023-02-04T10:34:58;102124.31;;;7.28;100.00
36380;BME280;22411;53.016;18.632;2023-02-04T10:37:25;102120.06;;;8.10;100.00
36380;BME280;22411;53.016;18.632;2023-02-04T10:39:51;102133.38;;;9.69;100.00
36380;BME280;22411;53.016;18.632;2023-02-04T10:42:26;102126.53;;;10.73;85.48
36380;BME280;22411;53.016;18.632;2023-02-04T10:44:52;102138.78;;;11.28;75.83
36380;BME280;22411;53.016;18.632;2023-02-04T10:47:26;102139.97;;;12.14;72.38
36380;BME280;22411;53.016;18.632;2023-02-04T10:49:59;102143.28;;;11.06;76.92
36380;BME280;22411;53.016;18.632;2023-02-04T10:52:36;102145.63;;;12.04;69.97
36380;BME280;22411;53.016;18.632;2023-02-04T10:55:05;102149.31;;;9.59;85.28
36380;BME280;22411;53.016;18.632;2023-02-04T10:57:41;102143.25;;;8.64;96.73
36380;BME280;22411;53.016;18.632;2023-02-04T11:00:22;102150.22;;;8.87;99.12
36380;BME280;22411;53.016;18.632;2023-02-04T11:05:31;102146.09;;;6.54;100.00
36380;BME280;22411;53.016;18.632;2023-02-04T11:07:58;102140.19;;;4.96;100.00
36380;BME280;22411;53.016;18.632;2023-02-04T11:10:34;102133.31;;;3.34;100.00
36380;BME280;22411;53.016;18.632;2023-02-04T11:13:20;102127.44;;;4.42;100.00
36380;BME280;22411;53.016;18.632;2023-02-04T11:15:48;102135.34;;;6.37;100.00
36380;BME280;22411;53.016;18.632;2023-02-04T11:20:53;102138.63;;;7.95;100.00
36380;BME280;22411;53.016;18.632;2023-02-04T11:26:10;102147.28;;;11.32;74.97
36380;BME280;22411;53.016;18.632;2023-02-04T11:29:05;102155.13;;;13.08;63.14
36380;BME280;22411;53.016;18.632;2023-02-04T11:37:09;102161.97;;;12.93;58.50
36380;BME280;22411;53.016;18.632;2023-02-04T11:39:43;102166.28;;;12.77;63.06
36380;BME280;22411;53.016;18.632;2023-02-04T11:42:22;102167.69;;;11.77;61.89
36380;BME280;22411;53.016;18.632;2023-02-04T11:44:54;102152.25;;;10.15;80.50
36380;BME280;22411;53.016;18.632;2023-02-04T11:47:23;102170.31;;;11.58;68.45
36380;BME280;22411;53.016;18.632;2023-02-04T11:52:58;102168.41;;;16.39;47.38
36380;BME280;22411;53.016;18.632;2023-02-04T11:55:28;102175.13;;;14.93;45.17
36380;BME280;22411;53.016;18.632;2023-02-04T11:57:56;102176.72;;;12.93;56.13
36380;BME280;22411;53.016;18.632;2023-02-04T12:00:31;102169.91;;;8.92;81.81
36380;BME280;22411;53.016;18.632;2023-02-04T12:03:03;102169.00;;;6.31;100.00
36380;BME280;22411;53.016;18.632;2023-02-04T12:05:43;102175.75;;;5.17;100.00
36380;BME280;22411;53.016;18.632;2023-02-04T12:13:22;102174.19;;;6.29;100.00
36380;BME280;22411;53.016;18.632;2023-02-04T12:16:04;102164.03;;;5.46;100.00
36380;BME280;22411;53.016;18.632;2023-02-04T12:18:33;102164.63;;;3.58;100.00
36380;BME280;22411;53.016;18.632;2023-02-04T12:21:00;102172.09;;;3.04;100.00
36380;BME280;22411;53.016;18.632;2023-02-04T12:23:28;102164.06;;;2.54;100.00
36380;BME280;22411;53.016;18.632;2023-02-04T12:25:55;102164.56;;;1.86;100.00
36380;BME280;22411;53.016;18.632;2023-02-04T12:28:22;102158.91;;;1.10;100.00
36380;BME280;22411;53.016;18.632;2023-02-04T12:30:49;102160.66;;;0.93;100.00
36380;BME280;22411;53.016;18.632;2023-02-04T12:33:15;102160.69;;;0.84;100.00
36380;BME280;22411;53.016;18.632;2023-02-04T12:35:41;102153.03;;;0.82;100.00
36380;BME280;22411;53.016;18.632;2023-02-04T12:38:08;102159.00;;;0.76;100.00
36380;BME280;22411;53.016;18.632;2023-02-04T12:40:34;102147.13;;;0.56;100.00
36380;BME280;22411;53.016;18.632;2023-02-04T12:43:01;102159.91;;;0.27;100.00
36380;BME280;22411;53.016;18.632;2023-02-04T12:45:27;102155.63;;;0.24;100.00
36380;BME280;22411;53.016;18.632;2023-02-04T12:47:53;102166.69;;;0.18;100.00
36380;BME280;22411;53.016;18.632;2023-02-04T12:50:19;102158.19;;;0.22;100.00
36380;BME280;22411;53.016;18.632;2023-02-04T12:52:54;102168.41;;;0.33;100.00
36380;BME280;22411;53.016;18.632;2023-02-04T12:55:21;102174.34;;;0.34;100.00
36380;BME280;22411;53.016;18.632;2023-02-04T12:57:47;102181.13;;;0.30;100.00